createdAt,value
2019-03-30T00:00:11.148Z,6.28
2019-03-30T00:00:42.334Z,6.34
2019-03-30T00:01:13.543Z,6.38
2019-03-30T00:01:44.810Z,6.39
2019-03-30T00:02:16.027Z,6.38
2019-03-30T00:02:47.284Z,6.44
2019-03-30T00:03:18.503Z,6.45
2019-03-30T00:03:49.770Z,6.48
2019-03-30T00:04:20.971Z,6.47
2019-03-30T00:04:52.243Z,6.45
2019-03-30T00:05:23.470Z,6.39
2019-03-30T00:05:54.666Z,6.37
2019-03-30T00:06:25.878Z,6.42
2019-03-30T00:06:57.089Z,6.46
2019-03-30T00:07:28.303Z,6.50
2019-03-30T00:07:59.510Z,6.50
2019-03-30T00:08:30.744Z,6.50
2019-03-30T00:09:02.004Z,6.50
2019-03-30T00:09:33.200Z,6.52
2019-03-30T00:10:04.427Z,6.55
2019-03-30T00:10:35.635Z,6.55
2019-03-30T00:11:06.847Z,6.57
2019-03-30T00:11:38.059Z,6.57
2019-03-30T00:12:09.256Z,6.56
2019-03-30T00:12:40.465Z,6.55
2019-03-30T00:13:11.756Z,6.51
2019-03-30T00:13:42.950Z,6.47
2019-03-30T00:14:14.156Z,6.42
2019-03-30T00:14:45.355Z,6.35
2019-03-30T00:15:16.579Z,6.31
2019-03-30T00:15:47.809Z,6.23
2019-03-30T00:16:19.001Z,6.13
2019-03-30T00:16:50.246Z,6.25
2019-03-30T00:17:21.467Z,6.41
2019-03-30T00:17:52.687Z,6.52
2019-03-30T00:18:23.911Z,6.62
2019-03-30T00:18:55.165Z,6.62
2019-03-30T00:19:34.924Z,6.58
2019-03-30T00:19:59.289Z,6.51
2019-03-30T00:20:30.523Z,6.19
2019-03-30T00:21:01.721Z,6.09
2019-03-30T00:21:32.940Z,6.02
2019-03-30T00:22:04.139Z,5.93
2019-03-30T00:22:35.349Z,5.87
2019-03-30T00:23:06.583Z,5.76
2019-03-30T00:23:37.843Z,5.49
2019-03-30T00:24:09.114Z,5.25
2019-03-30T00:24:40.335Z,5.04
2019-03-30T00:25:11.545Z,4.88
2019-03-30T00:25:42.759Z,4.77
2019-03-30T00:26:13.978Z,4.69
2019-03-30T00:26:45.195Z,4.59
2019-03-30T00:27:16.427Z,4.58
2019-03-30T00:27:47.650Z,4.53
2019-03-30T00:28:18.854Z,4.51
2019-03-30T00:28:50.122Z,4.46
2019-03-30T00:29:21.331Z,4.44
2019-03-30T00:29:52.540Z,4.32
2019-03-30T00:30:23.781Z,4.31
2019-03-30T00:30:55.004Z,4.26
2019-03-30T00:31:26.275Z,4.20
2019-03-30T00:31:57.486Z,4.25
2019-03-30T00:32:28.696Z,4.24
2019-03-30T00:32:59.935Z,4.26
2019-03-30T00:33:31.151Z,4.27
2019-03-30T00:34:02.363Z,4.24
2019-03-30T00:34:33.580Z,4.25
2019-03-30T00:35:04.782Z,4.29
2019-03-30T00:35:35.991Z,4.42
2019-03-30T00:36:07.232Z,4.44
2019-03-30T00:36:38.506Z,4.45
2019-03-30T00:37:09.711Z,4.45
2019-03-30T00:37:40.921Z,4.44
2019-03-30T00:38:12.181Z,4.46
2019-03-30T00:38:43.425Z,4.49
2019-03-30T00:39:14.612Z,4.59
2019-03-30T00:39:45.872Z,4.61
2019-03-30T00:40:17.050Z,4.60
2019-03-30T00:40:48.262Z,4.62
2019-03-30T00:41:19.481Z,4.58
2019-03-30T00:41:50.743Z,4.63
2019-03-30T00:42:21.958Z,4.65
2019-03-30T00:42:53.184Z,4.69
2019-03-30T00:43:24.431Z,4.73
2019-03-30T00:43:55.644Z,4.78
2019-03-30T00:44:26.882Z,4.83
2019-03-30T00:44:58.076Z,4.85
2019-03-30T00:45:29.296Z,4.90
2019-03-30T00:46:00.509Z,4.94
2019-03-30T00:46:32.311Z,4.96
2019-03-30T00:47:03.525Z,4.86
2019-03-30T00:47:34.769Z,4.78
2019-03-30T00:48:05.997Z,4.78
2019-03-30T00:48:37.259Z,4.75
2019-03-30T00:49:08.473Z,4.75
2019-03-30T00:49:48.978Z,4.76
2019-03-30T00:50:12.658Z,4.80
2019-03-30T00:50:43.893Z,4.85
2019-03-30T00:51:15.099Z,4.85
2019-03-30T00:51:46.320Z,4.82
2019-03-30T00:52:17.532Z,4.87
2019-03-30T00:52:48.744Z,4.93
2019-03-30T00:53:19.979Z,5.01
2019-03-30T00:53:51.195Z,5.06
2019-03-30T00:54:22.394Z,5.09
2019-03-30T00:54:53.615Z,5.10
2019-03-30T00:55:26.117Z,5.10
2019-03-30T00:55:57.347Z,5.11
2019-03-30T00:56:28.556Z,5.11
2019-03-30T00:56:59.790Z,5.07
2019-03-30T00:57:31.984Z,5.07
2019-03-30T00:58:03.192Z,5.06
2019-03-30T00:58:34.474Z,5.04
2019-03-30T00:59:05.694Z,5.03
2019-03-30T00:59:36.899Z,5.01
2019-03-30T01:00:08.142Z,5.00
2019-03-30T01:00:39.351Z,4.99
2019-03-30T01:01:10.565Z,4.99
2019-03-30T01:01:41.771Z,4.99
2019-03-30T01:02:13.061Z,4.98
2019-03-30T01:02:44.276Z,4.98
2019-03-30T01:03:15.509Z,5.05
2019-03-30T01:03:47.217Z,5.10
2019-03-30T01:04:18.555Z,5.14
2019-03-30T01:04:49.790Z,5.17
2019-03-30T01:05:20.995Z,5.16
2019-03-30T01:05:52.215Z,5.15
2019-03-30T01:06:23.413Z,5.16
2019-03-30T01:06:54.709Z,5.10
2019-03-30T01:07:25.943Z,5.09
2019-03-30T01:07:57.126Z,5.16
2019-03-30T01:08:28.348Z,5.19
2019-03-30T01:08:59.607Z,5.25
2019-03-30T01:09:30.812Z,5.28
2019-03-30T01:10:02.051Z,5.30
2019-03-30T01:10:33.262Z,5.30
2019-03-30T01:11:04.524Z,5.31
2019-03-30T01:11:35.763Z,5.29
2019-03-30T01:12:07.026Z,5.29
2019-03-30T01:12:38.241Z,5.27
2019-03-30T01:13:09.449Z,5.24
2019-03-30T01:13:40.670Z,5.23
2019-03-30T01:14:11.921Z,5.23
2019-03-30T01:14:43.140Z,5.25
2019-03-30T01:15:14.449Z,5.24
2019-03-30T01:15:45.659Z,5.23
2019-03-30T01:16:16.932Z,5.22
2019-03-30T01:16:48.134Z,5.19
2019-03-30T01:17:19.358Z,5.16
2019-03-30T01:17:50.566Z,5.15
2019-03-30T01:18:21.817Z,5.15
2019-03-30T01:18:53.060Z,5.10
2019-03-30T01:19:24.277Z,5.07
2019-03-30T01:20:02.734Z,5.08
2019-03-30T01:20:28.466Z,5.04
2019-03-30T01:20:59.684Z,5.04
2019-03-30T01:21:30.933Z,5.06
2019-03-30T01:22:02.143Z,5.10
2019-03-30T01:22:33.358Z,5.12
2019-03-30T01:23:04.591Z,5.14
2019-03-30T01:23:35.804Z,5.14
2019-03-30T01:24:07.044Z,5.17
2019-03-30T01:24:38.318Z,5.16
2019-03-30T01:25:09.663Z,5.14
2019-03-30T01:25:40.910Z,5.10
2019-03-30T01:26:12.121Z,5.06
2019-03-30T01:26:43.336Z,5.05
2019-03-30T01:27:14.593Z,5.03
2019-03-30T01:27:45.808Z,4.99
2019-03-30T01:28:17.019Z,4.94
2019-03-30T01:28:48.228Z,4.89
2019-03-30T01:29:19.452Z,4.78
2019-03-30T01:29:50.670Z,4.69
2019-03-30T01:30:23.393Z,4.68
2019-03-30T01:30:54.883Z,4.66
2019-03-30T01:31:26.154Z,4.66
2019-03-30T01:31:57.380Z,4.64
2019-03-30T01:32:28.631Z,4.66
2019-03-30T01:32:59.879Z,4.66
2019-03-30T01:33:31.109Z,4.69
2019-03-30T01:34:02.330Z,4.68
2019-03-30T01:34:33.531Z,4.65
2019-03-30T01:35:04.802Z,4.60
2019-03-30T01:35:36.035Z,4.59
2019-03-30T01:36:07.276Z,4.54
2019-03-30T01:36:38.495Z,4.52
2019-03-30T01:37:09.742Z,4.51
2019-03-30T01:37:40.959Z,4.49
2019-03-30T01:38:12.167Z,4.51
2019-03-30T01:38:43.373Z,4.53
2019-03-30T01:39:14.663Z,4.56
2019-03-30T01:39:45.935Z,4.57
2019-03-30T01:40:17.142Z,4.61
2019-03-30T01:40:48.425Z,4.64
2019-03-30T01:41:19.664Z,4.65
2019-03-30T01:41:50.871Z,4.65
2019-03-30T01:42:22.163Z,4.66
2019-03-30T01:42:53.378Z,4.66
2019-03-30T01:43:24.587Z,4.67
2019-03-30T01:43:55.821Z,4.66
2019-03-30T01:44:27.424Z,4.71
2019-03-30T01:44:58.635Z,4.78
2019-03-30T01:45:29.844Z,4.90
2019-03-30T01:46:01.060Z,5.00
2019-03-30T01:46:32.292Z,5.05
2019-03-30T01:47:03.538Z,5.05
2019-03-30T01:47:34.754Z,5.06
2019-03-30T01:48:05.981Z,5.08
2019-03-30T01:48:37.229Z,5.10
2019-03-30T01:49:08.563Z,5.10
2019-03-30T01:49:39.797Z,5.04
2019-03-30T01:50:17.689Z,5.05
2019-03-30T01:50:43.928Z,5.02
2019-03-30T01:51:15.148Z,5.03
2019-03-30T01:51:46.352Z,5.04
2019-03-30T01:52:17.571Z,5.03
2019-03-30T01:52:48.807Z,5.03
2019-03-30T01:53:20.115Z,4.95
2019-03-30T01:53:51.385Z,4.93
2019-03-30T01:54:22.620Z,4.93
2019-03-30T01:54:53.825Z,4.92
2019-03-30T01:55:25.043Z,4.95
2019-03-30T01:55:56.236Z,4.96
2019-03-30T01:56:27.491Z,4.95
2019-03-30T01:56:58.722Z,4.91
2019-03-30T01:57:29.937Z,4.89
2019-03-30T01:58:01.187Z,4.88
2019-03-30T01:58:32.363Z,4.87
2019-03-30T01:59:03.572Z,4.87
2019-03-30T01:59:34.783Z,4.85
2019-03-30T02:00:05.994Z,4.81
2019-03-30T02:00:37.245Z,4.83
2019-03-30T02:01:08.494Z,4.85
2019-03-30T02:01:39.758Z,4.85
2019-03-30T02:02:11.003Z,4.87
2019-03-30T02:02:42.206Z,4.88
2019-03-30T02:03:13.452Z,4.92
2019-03-30T02:03:44.636Z,4.95
2019-03-30T02:04:15.840Z,4.97
2019-03-30T02:04:47.042Z,5.02
2019-03-30T02:05:18.266Z,5.02
2019-03-30T02:05:49.531Z,5.03
2019-03-30T02:06:20.740Z,5.00
2019-03-30T02:06:51.939Z,5.03
2019-03-30T02:07:23.142Z,5.06
2019-03-30T02:07:54.351Z,5.09
2019-03-30T02:08:25.561Z,5.08
2019-03-30T02:08:56.772Z,5.08
2019-03-30T02:09:28.010Z,5.04
2019-03-30T02:09:59.309Z,5.03
2019-03-30T02:10:30.516Z,5.04
2019-03-30T02:11:01.802Z,5.03
2019-03-30T02:11:33.019Z,5.03
2019-03-30T02:12:04.265Z,4.99
2019-03-30T02:12:35.489Z,4.97
2019-03-30T02:13:06.688Z,4.98
2019-03-30T02:13:37.939Z,4.97
2019-03-30T02:14:09.173Z,4.96
2019-03-30T02:14:42.258Z,4.91
2019-03-30T02:15:13.512Z,4.91
2019-03-30T02:15:44.729Z,4.86
2019-03-30T02:16:15.943Z,4.86
2019-03-30T02:16:47.157Z,4.86
2019-03-30T02:17:20.158Z,4.85
2019-03-30T02:17:51.314Z,4.86
2019-03-30T02:18:22.567Z,4.87
2019-03-30T02:18:53.790Z,4.90
2019-03-30T02:19:24.972Z,4.96
2019-03-30T02:19:56.202Z,5.12
2019-03-30T02:20:30.925Z,5.23
2019-03-30T02:21:00.421Z,5.26
2019-03-30T02:21:31.631Z,5.28
2019-03-30T02:22:02.884Z,5.26
2019-03-30T02:22:34.088Z,5.22
2019-03-30T02:23:05.290Z,5.20
2019-03-30T02:23:36.510Z,5.20
2019-03-30T02:24:07.735Z,5.20
2019-03-30T02:24:38.998Z,5.22
2019-03-30T02:25:10.271Z,5.19
2019-03-30T02:25:41.479Z,5.13
2019-03-30T02:26:12.762Z,5.11
2019-03-30T02:26:44.002Z,5.09
2019-03-30T02:27:15.224Z,5.08
2019-03-30T02:27:46.476Z,5.07
2019-03-30T02:28:17.723Z,5.00
2019-03-30T02:28:48.933Z,4.96
2019-03-30T02:29:20.163Z,4.89
2019-03-30T02:29:51.380Z,4.81
2019-03-30T02:30:22.596Z,4.71
2019-03-30T02:30:53.825Z,4.63
2019-03-30T02:31:25.058Z,4.58
2019-03-30T02:31:56.251Z,4.53
2019-03-30T02:32:27.498Z,4.46
2019-03-30T02:32:58.700Z,4.38
2019-03-30T02:33:29.902Z,4.33
2019-03-30T02:34:01.114Z,4.34
2019-03-30T02:34:32.349Z,4.41
2019-03-30T02:35:03.592Z,4.46
2019-03-30T02:35:34.806Z,4.49
2019-03-30T02:36:06.064Z,4.49
2019-03-30T02:36:37.327Z,4.50
2019-03-30T02:37:08.520Z,4.52
2019-03-30T02:37:39.735Z,4.47
2019-03-30T02:38:10.943Z,4.44
2019-03-30T02:38:42.161Z,4.39
2019-03-30T02:39:13.371Z,4.34
2019-03-30T02:39:44.585Z,4.25
2019-03-30T02:40:15.875Z,4.16
2019-03-30T02:40:47.091Z,4.09
2019-03-30T02:41:18.351Z,4.05
2019-03-30T02:41:49.534Z,4.00
2019-03-30T02:42:20.757Z,4.01
2019-03-30T02:42:51.972Z,4.04
2019-03-30T02:43:23.310Z,4.08
2019-03-30T02:43:54.509Z,4.13
2019-03-30T02:44:25.719Z,4.22
2019-03-30T02:44:56.946Z,4.31
2019-03-30T02:45:28.207Z,4.35
2019-03-30T02:45:59.410Z,4.41
2019-03-30T02:46:30.629Z,4.43
2019-03-30T02:47:01.875Z,4.47
2019-03-30T02:47:33.136Z,4.52
2019-03-30T02:48:04.378Z,4.51
2019-03-30T02:48:35.622Z,4.44
2019-03-30T02:49:06.839Z,4.40
2019-03-30T02:49:38.046Z,4.35
2019-03-30T02:50:09.305Z,4.28
2019-03-30T02:50:50.139Z,4.22
2019-03-30T02:51:13.502Z,4.21
2019-03-30T02:51:44.709Z,4.25
2019-03-30T02:52:15.944Z,4.26
2019-03-30T02:52:47.193Z,4.26
2019-03-30T02:53:18.451Z,4.23
2019-03-30T02:53:49.665Z,4.22
2019-03-30T02:54:20.866Z,4.23
2019-03-30T02:54:52.078Z,4.20
2019-03-30T02:55:23.289Z,4.17
2019-03-30T02:55:54.503Z,4.13
2019-03-30T02:56:25.717Z,4.15
2019-03-30T02:56:56.929Z,4.10
2019-03-30T02:57:28.198Z,4.07
2019-03-30T02:57:59.493Z,4.06
2019-03-30T02:58:30.665Z,4.08
2019-03-30T02:59:01.874Z,4.09
2019-03-30T02:59:33.101Z,4.11
2019-03-30T03:00:04.312Z,4.14
2019-03-30T03:00:35.535Z,4.18
2019-03-30T03:01:06.775Z,4.20
2019-03-30T03:01:38.005Z,4.18
2019-03-30T03:02:09.201Z,4.15
2019-03-30T03:02:40.462Z,4.15
2019-03-30T03:03:11.680Z,4.12
2019-03-30T03:03:42.884Z,4.18
2019-03-30T03:04:14.093Z,4.25
2019-03-30T03:04:45.313Z,4.26
2019-03-30T03:05:16.532Z,4.26
2019-03-30T03:05:47.781Z,4.29
2019-03-30T03:06:18.993Z,4.33
2019-03-30T03:06:50.252Z,4.35
2019-03-30T03:07:21.469Z,4.38
2019-03-30T03:07:52.722Z,4.39
2019-03-30T03:08:23.946Z,4.46
2019-03-30T03:08:55.138Z,4.55
2019-03-30T03:09:26.350Z,4.61
2019-03-30T03:09:57.554Z,4.66
2019-03-30T03:10:28.774Z,4.69
2019-03-30T03:10:59.975Z,4.69
2019-03-30T03:11:31.202Z,4.73
2019-03-30T03:12:02.404Z,4.79
2019-03-30T03:12:33.606Z,4.83
2019-03-30T03:13:04.815Z,4.89
2019-03-30T03:13:36.033Z,4.91
2019-03-30T03:14:07.238Z,4.91
2019-03-30T03:14:38.481Z,4.91
2019-03-30T03:15:09.688Z,4.82
2019-03-30T03:15:40.898Z,4.74
2019-03-30T03:16:12.099Z,4.72
2019-03-30T03:16:43.301Z,4.69
2019-03-30T03:17:14.515Z,4.66
2019-03-30T03:17:45.729Z,4.65
2019-03-30T03:18:16.943Z,4.63
2019-03-30T03:18:48.161Z,4.62
2019-03-30T03:19:19.360Z,4.64
2019-03-30T03:19:50.623Z,4.65
2019-03-30T03:20:21.820Z,4.63
2019-03-30T03:21:06.740Z,4.64
2019-03-30T03:21:25.997Z,4.67
2019-03-30T03:21:57.218Z,4.67
2019-03-30T03:22:28.405Z,4.65
2019-03-30T03:22:59.645Z,4.62
2019-03-30T03:23:30.840Z,4.57
2019-03-30T03:24:02.049Z,4.56
2019-03-30T03:24:33.260Z,4.57
2019-03-30T03:25:04.516Z,4.56
2019-03-30T03:25:35.724Z,4.53
2019-03-30T03:26:06.938Z,4.50
2019-03-30T03:26:38.147Z,4.47
2019-03-30T03:27:09.365Z,4.44
2019-03-30T03:27:40.623Z,4.42
2019-03-30T03:28:11.847Z,4.43
2019-03-30T03:28:43.068Z,4.44
2019-03-30T03:29:14.292Z,4.45
2019-03-30T03:29:45.504Z,4.47
2019-03-30T03:30:16.778Z,4.48
2019-03-30T03:30:48.011Z,4.45
2019-03-30T03:31:19.283Z,4.46
2019-03-30T03:31:50.520Z,4.60
2019-03-30T03:32:21.725Z,4.74
2019-03-30T03:32:52.977Z,4.81
2019-03-30T03:33:24.205Z,4.86
2019-03-30T03:33:55.425Z,4.90
2019-03-30T03:34:26.737Z,4.91
2019-03-30T03:34:57.942Z,4.91
2019-03-30T03:35:29.139Z,4.93
2019-03-30T03:36:00.398Z,4.94
2019-03-30T03:36:31.610Z,4.93
2019-03-30T03:37:02.811Z,4.92
2019-03-30T03:37:44.926Z,4.94
2019-03-30T03:38:06.955Z,4.97
2019-03-30T03:38:38.170Z,4.96
2019-03-30T03:39:09.377Z,4.98
2019-03-30T03:39:40.605Z,5.01
2019-03-30T03:40:11.804Z,5.04
2019-03-30T03:40:43.017Z,5.06
2019-03-30T03:41:14.279Z,5.08
2019-03-30T03:41:45.532Z,5.13
2019-03-30T03:42:16.726Z,5.17
2019-03-30T03:42:47.953Z,5.17
2019-03-30T03:43:19.163Z,5.16
2019-03-30T03:43:50.382Z,5.16
2019-03-30T03:44:21.603Z,5.17
2019-03-30T03:44:52.822Z,5.19
2019-03-30T03:45:24.045Z,5.19
2019-03-30T03:45:55.274Z,5.19
2019-03-30T03:46:26.501Z,5.17
2019-03-30T03:46:57.735Z,5.17
2019-03-30T03:47:28.959Z,5.16
2019-03-30T03:48:00.180Z,5.13
2019-03-30T03:48:31.402Z,5.10
2019-03-30T03:49:04.408Z,5.10
2019-03-30T03:49:35.620Z,5.14
2019-03-30T03:50:07.240Z,5.14
2019-03-30T03:50:38.463Z,5.14
2019-03-30T03:51:25.073Z,5.14
2019-03-30T03:51:42.605Z,5.12
2019-03-30T03:52:13.833Z,5.10
2019-03-30T03:52:45.077Z,5.13
2019-03-30T03:53:16.289Z,5.12
2019-03-30T03:53:47.498Z,5.12
2019-03-30T03:54:18.709Z,5.11
2019-03-30T03:54:49.923Z,5.12
2019-03-30T03:55:21.134Z,4.99
2019-03-30T03:55:52.369Z,4.91
2019-03-30T03:56:23.623Z,4.86
2019-03-30T03:56:54.882Z,4.72
2019-03-30T03:57:26.093Z,4.69
2019-03-30T03:57:57.307Z,4.68
2019-03-30T03:58:28.544Z,4.63
2019-03-30T03:58:59.754Z,4.64
2019-03-30T03:59:30.962Z,4.64
2019-03-30T04:00:02.181Z,4.65
2019-03-30T04:00:33.383Z,4.69
2019-03-30T04:01:04.578Z,4.71
2019-03-30T04:01:35.788Z,4.71
2019-03-30T04:02:06.994Z,4.75
2019-03-30T04:02:38.248Z,4.72
2019-03-30T04:03:09.488Z,4.68
2019-03-30T04:03:40.768Z,4.63
2019-03-30T04:04:11.963Z,4.60
2019-03-30T04:04:47.048Z,4.56
2019-03-30T04:05:16.134Z,4.54
2019-03-30T04:05:47.363Z,4.53
2019-03-30T04:06:18.550Z,4.52
2019-03-30T04:06:49.775Z,4.51
2019-03-30T04:07:20.998Z,4.51
2019-03-30T04:07:52.239Z,4.53
2019-03-30T04:08:23.426Z,4.55
2019-03-30T04:08:54.693Z,4.58
2019-03-30T04:09:25.964Z,4.63
2019-03-30T04:09:57.177Z,4.66
2019-03-30T04:10:28.435Z,4.68
2019-03-30T04:10:59.631Z,4.68
2019-03-30T04:11:30.851Z,4.67
2019-03-30T04:12:02.069Z,4.69
2019-03-30T04:12:33.295Z,4.66
2019-03-30T04:13:06.936Z,4.64
2019-03-30T04:13:37.443Z,4.63
2019-03-30T04:14:08.701Z,4.57
2019-03-30T04:14:39.909Z,4.52
2019-03-30T04:15:11.127Z,4.48
2019-03-30T04:15:42.351Z,4.47
2019-03-30T04:16:13.561Z,4.44
2019-03-30T04:16:44.778Z,4.46
2019-03-30T04:17:16.038Z,4.54
2019-03-30T04:17:47.309Z,4.61
2019-03-30T04:18:18.520Z,4.67
2019-03-30T04:18:49.749Z,4.81
2019-03-30T04:19:20.940Z,4.88
2019-03-30T04:19:52.161Z,4.92
2019-03-30T04:20:23.407Z,4.99
2019-03-30T04:20:54.607Z,5.06
2019-03-30T04:21:42.442Z,5.08
2019-03-30T04:21:58.816Z,5.07
2019-03-30T04:22:30.071Z,5.07
2019-03-30T04:23:01.343Z,5.14
2019-03-30T04:23:32.553Z,5.18
2019-03-30T04:24:03.753Z,5.16
2019-03-30T04:24:35.003Z,5.14
2019-03-30T04:25:06.206Z,5.13
2019-03-30T04:25:37.438Z,5.15
2019-03-30T04:26:08.684Z,5.14
2019-03-30T04:26:39.894Z,5.12
2019-03-30T04:27:11.098Z,5.03
2019-03-30T04:27:42.302Z,4.94
2019-03-30T04:28:13.558Z,4.86
2019-03-30T04:28:44.778Z,4.78
2019-03-30T04:29:15.998Z,4.72
2019-03-30T04:29:47.215Z,4.68
2019-03-30T04:30:18.416Z,4.65
2019-03-30T04:30:49.620Z,4.62
2019-03-30T04:31:20.835Z,4.59
2019-03-30T04:31:52.074Z,4.56
2019-03-30T04:32:23.334Z,4.53
2019-03-30T04:32:54.586Z,4.56
2019-03-30T04:33:25.911Z,4.58
2019-03-30T04:33:57.132Z,4.60
2019-03-30T04:34:28.331Z,4.61
2019-03-30T04:34:59.543Z,4.67
2019-03-30T04:35:30.740Z,4.68
2019-03-30T04:36:01.948Z,4.69
2019-03-30T04:36:33.170Z,4.71
2019-03-30T04:37:04.392Z,4.70
2019-03-30T04:37:35.599Z,4.69
2019-03-30T04:38:06.807Z,4.70
2019-03-30T04:38:38.094Z,4.70
2019-03-30T04:39:09.296Z,4.71
2019-03-30T04:39:40.544Z,4.73
2019-03-30T04:40:11.738Z,4.74
2019-03-30T04:40:42.932Z,4.74
2019-03-30T04:41:14.141Z,4.75
2019-03-30T04:41:45.374Z,4.79
2019-03-30T04:42:16.590Z,4.81
2019-03-30T04:42:47.810Z,4.82
2019-03-30T04:43:19.045Z,4.80
2019-03-30T04:43:50.283Z,4.81
2019-03-30T04:44:21.486Z,4.82
2019-03-30T04:44:52.706Z,4.84
2019-03-30T04:45:24.002Z,4.84
2019-03-30T04:45:55.202Z,4.88
2019-03-30T04:46:26.417Z,4.90
2019-03-30T04:46:57.630Z,4.92
2019-03-30T04:47:28.861Z,4.92
2019-03-30T04:48:00.094Z,4.92
2019-03-30T04:48:31.419Z,4.93
2019-03-30T04:49:02.673Z,5.04
2019-03-30T04:49:33.881Z,5.11
2019-03-30T04:50:05.093Z,4.13
2019-03-30T04:50:36.328Z,5.24
2019-03-30T04:51:07.532Z,5.26
2019-03-30T04:51:38.733Z,5.25
2019-03-30T04:52:09.952Z,5.29
2019-03-30T04:52:41.165Z,5.34
2019-03-30T04:53:12.380Z,5.34
2019-03-30T04:53:43.618Z,5.31
2019-03-30T04:54:14.937Z,5.33
2019-03-30T04:54:46.142Z,5.33
2019-03-30T04:55:17.351Z,5.34
2019-03-30T04:55:48.580Z,5.29
2019-03-30T04:56:19.798Z,5.21
2019-03-30T04:56:51.006Z,5.16
2019-03-30T04:57:22.213Z,5.10
2019-03-30T04:57:53.427Z,5.05
2019-03-30T04:58:24.664Z,5.03
2019-03-30T04:58:55.921Z,5.00
2019-03-30T04:59:27.139Z,4.97
2019-03-30T04:59:58.364Z,4.96
2019-03-30T05:00:29.664Z,4.94
2019-03-30T05:01:00.883Z,4.93
2019-03-30T05:01:32.087Z,4.90
2019-03-30T05:02:03.308Z,4.86
2019-03-30T05:02:34.512Z,4.83
2019-03-30T05:03:05.728Z,4.84
2019-03-30T05:03:36.936Z,4.90
2019-03-30T05:04:08.229Z,5.04
2019-03-30T05:04:39.434Z,5.17
2019-03-30T05:05:10.646Z,5.20
2019-03-30T05:05:43.220Z,5.26
2019-03-30T05:06:14.644Z,5.29
2019-03-30T05:06:45.866Z,5.33
2019-03-30T05:07:17.086Z,5.41
2019-03-30T05:07:48.310Z,5.52
2019-03-30T05:08:19.501Z,5.60
2019-03-30T05:08:50.761Z,5.65
2019-03-30T05:09:21.986Z,5.72
2019-03-30T05:09:53.195Z,5.82
2019-03-30T05:10:24.396Z,5.87
2019-03-30T05:10:55.672Z,5.96
2019-03-30T05:11:26.874Z,6.00
2019-03-30T05:11:58.124Z,6.06
2019-03-30T05:12:29.358Z,6.11
2019-03-30T05:13:00.657Z,6.11
2019-03-30T05:13:31.910Z,6.16
2019-03-30T05:14:03.123Z,6.16
2019-03-30T05:14:34.336Z,6.09
2019-03-30T05:15:05.560Z,6.12
2019-03-30T05:15:36.771Z,6.10
2019-03-30T05:16:07.992Z,6.07
2019-03-30T05:16:39.214Z,6.02
2019-03-30T05:17:10.499Z,5.99
2019-03-30T05:17:47.357Z,5.95
2019-03-30T05:18:14.654Z,5.89
2019-03-30T05:18:45.877Z,5.84
2019-03-30T05:19:17.090Z,5.77
2019-03-30T05:19:48.291Z,5.73
2019-03-30T05:20:19.534Z,5.71
2019-03-30T05:20:50.741Z,5.71
2019-03-30T05:21:22.025Z,5.70
2019-03-30T05:21:53.253Z,5.73
2019-03-30T05:22:24.450Z,5.73
2019-03-30T05:22:55.686Z,5.67
2019-03-30T05:23:26.899Z,5.67
2019-03-30T05:23:58.103Z,5.72
2019-03-30T05:24:29.311Z,5.74
2019-03-30T05:25:00.588Z,5.66
2019-03-30T05:25:31.803Z,5.63
2019-03-30T05:26:03.022Z,5.61
2019-03-30T05:26:34.219Z,5.58
2019-03-30T05:27:05.484Z,5.56
2019-03-30T05:27:36.725Z,5.56
2019-03-30T05:28:07.965Z,5.57
2019-03-30T05:28:39.216Z,5.59
2019-03-30T05:29:10.431Z,5.57
2019-03-30T05:29:41.656Z,5.55
2019-03-30T05:30:12.881Z,5.57
2019-03-30T05:30:44.113Z,5.60
2019-03-30T05:31:15.368Z,5.66
2019-03-30T05:31:46.566Z,5.72
2019-03-30T05:32:17.778Z,5.81
2019-03-30T05:33:04.973Z,5.88
2019-03-30T05:33:24.702Z,5.92
2019-03-30T05:33:55.917Z,5.93
2019-03-30T05:34:27.208Z,5.96
2019-03-30T05:34:58.421Z,5.98
2019-03-30T05:35:29.642Z,6.03
2019-03-30T05:36:00.857Z,6.12
2019-03-30T05:36:32.090Z,6.16
2019-03-30T05:37:03.297Z,6.20
2019-03-30T05:37:34.499Z,6.23
2019-03-30T05:38:05.744Z,6.24
2019-03-30T05:38:36.956Z,6.24
2019-03-30T05:39:08.167Z,6.22
2019-03-30T05:39:39.421Z,6.22
2019-03-30T05:40:10.708Z,6.28
2019-03-30T05:40:41.894Z,6.36
2019-03-30T05:41:13.114Z,6.37
2019-03-30T05:41:44.328Z,6.41
2019-03-30T05:42:15.518Z,6.43
2019-03-30T05:42:46.736Z,6.33
2019-03-30T05:43:17.961Z,6.29
2019-03-30T05:43:49.173Z,6.33
2019-03-30T05:44:20.482Z,6.36
2019-03-30T05:44:51.685Z,6.38
2019-03-30T05:45:22.928Z,6.44
2019-03-30T05:45:54.132Z,6.42
2019-03-30T05:46:25.355Z,6.39
2019-03-30T05:46:56.617Z,6.36
2019-03-30T05:47:27.823Z,6.35
2019-03-30T05:47:59.037Z,6.36
2019-03-30T05:48:30.284Z,6.37
2019-03-30T05:49:01.518Z,6.37
2019-03-30T05:49:32.725Z,6.46
2019-03-30T05:50:03.943Z,6.54
2019-03-30T05:50:35.198Z,6.55
2019-03-30T05:51:06.434Z,6.62
2019-03-30T05:51:37.653Z,6.69
2019-03-30T05:52:08.871Z,6.75
2019-03-30T05:52:40.077Z,6.80
2019-03-30T05:53:11.285Z,6.78
2019-03-30T05:53:42.496Z,6.73
2019-03-30T05:54:13.711Z,6.72
2019-03-30T05:54:44.921Z,6.69
2019-03-30T05:55:16.208Z,6.71
2019-03-30T05:55:47.458Z,6.71
2019-03-30T05:56:18.682Z,6.73
2019-03-30T05:56:49.896Z,6.76
2019-03-30T05:57:21.107Z,6.75
2019-03-30T05:57:52.317Z,6.79
2019-03-30T05:58:23.529Z,6.83
2019-03-30T05:58:54.738Z,6.91
2019-03-30T05:59:25.952Z,6.99
2019-03-30T05:59:57.165Z,7.00
2019-03-30T06:00:28.406Z,7.07
2019-03-30T06:00:59.639Z,7.19
2019-03-30T06:01:30.838Z,7.31
2019-03-30T06:02:02.061Z,7.46
2019-03-30T06:02:33.276Z,7.59
2019-03-30T06:03:04.472Z,7.81
2019-03-30T06:03:35.699Z,7.91
2019-03-30T06:04:06.933Z,7.94
2019-03-30T06:04:38.150Z,8.00
2019-03-30T06:05:09.412Z,8.01
2019-03-30T06:05:40.644Z,8.01
2019-03-30T06:06:11.861Z,8.02
2019-03-30T06:06:43.076Z,8.09
2019-03-30T06:07:14.347Z,8.15
2019-03-30T06:07:45.556Z,8.20
2019-03-30T06:08:16.781Z,8.23
2019-03-30T06:08:47.992Z,8.29
2019-03-30T06:09:19.238Z,8.36
2019-03-30T06:09:50.496Z,8.36
2019-03-30T06:10:21.713Z,8.29
2019-03-30T06:10:52.931Z,8.25
2019-03-30T06:11:24.130Z,8.24
2019-03-30T06:11:55.340Z,8.23
2019-03-30T06:12:26.676Z,8.23
2019-03-30T06:12:57.867Z,8.18
2019-03-30T06:13:29.087Z,8.17
2019-03-30T06:14:00.338Z,8.14
2019-03-30T06:14:31.558Z,8.17
2019-03-30T06:15:02.844Z,8.19
2019-03-30T06:15:34.051Z,8.23
2019-03-30T06:16:05.258Z,8.29
2019-03-30T06:16:36.487Z,8.40
2019-03-30T06:17:07.742Z,8.50
2019-03-30T06:17:38.981Z,8.60
2019-03-30T06:18:11.501Z,8.68
2019-03-30T06:18:42.936Z,8.78
2019-03-30T06:19:14.198Z,8.90
2019-03-30T06:19:45.435Z,8.98
2019-03-30T06:20:16.646Z,9.06
2019-03-30T06:20:47.843Z,9.12
2019-03-30T06:21:19.069Z,9.18
2019-03-30T06:21:50.283Z,9.25
2019-03-30T06:22:21.549Z,9.31
2019-03-30T06:22:52.729Z,9.30
2019-03-30T06:23:23.928Z,9.38
2019-03-30T06:23:55.163Z,9.45
2019-03-30T06:24:26.396Z,9.47
2019-03-30T06:24:57.607Z,9.51
2019-03-30T06:25:28.825Z,9.54
2019-03-30T06:26:00.056Z,9.59
2019-03-30T06:26:31.324Z,9.65
2019-03-30T06:27:02.573Z,9.68
2019-03-30T06:27:33.767Z,9.68
2019-03-30T06:28:05.013Z,9.70
2019-03-30T06:28:36.265Z,9.73
2019-03-30T06:29:07.458Z,9.66
2019-03-30T06:29:38.699Z,9.74
2019-03-30T06:30:09.930Z,9.85
2019-03-30T06:30:41.130Z,9.90
2019-03-30T06:31:12.350Z,9.97
2019-03-30T06:31:46.648Z,10.00
2019-03-30T06:32:16.533Z,10.01
2019-03-30T06:32:47.779Z,10.01
2019-03-30T06:33:18.994Z,10.03
2019-03-30T06:33:50.234Z,10.04
2019-03-30T06:34:21.507Z,10.04
2019-03-30T06:34:52.708Z,10.00
2019-03-30T06:35:23.936Z,9.93
2019-03-30T06:35:55.140Z,9.94
2019-03-30T06:36:26.370Z,9.99
2019-03-30T06:36:57.591Z,10.02
2019-03-30T06:37:28.854Z,10.06
2019-03-30T06:38:00.062Z,9.99
2019-03-30T06:38:31.328Z,9.94
2019-03-30T06:39:02.540Z,9.93
2019-03-30T06:39:36.889Z,9.97
2019-03-30T06:40:06.690Z,9.94
2019-03-30T06:40:37.898Z,9.89
2019-03-30T06:41:09.123Z,9.93
2019-03-30T06:41:40.352Z,9.95
2019-03-30T06:42:11.526Z,9.97
2019-03-30T06:42:42.763Z,9.97
2019-03-30T06:43:14.003Z,9.94
2019-03-30T06:43:45.264Z,9.95
2019-03-30T06:44:16.512Z,9.91
2019-03-30T06:44:47.739Z,9.87
2019-03-30T06:45:18.964Z,9.78
2019-03-30T06:45:50.159Z,9.78
2019-03-30T06:46:21.356Z,9.82
2019-03-30T06:46:52.557Z,9.82
2019-03-30T06:47:23.774Z,9.82
2019-03-30T06:47:54.981Z,9.83
2019-03-30T06:48:26.190Z,9.76
2019-03-30T06:48:57.444Z,9.71
2019-03-30T06:49:28.666Z,9.71
2019-03-30T06:49:59.886Z,9.71
2019-03-30T06:50:31.146Z,9.70
2019-03-30T06:51:02.381Z,9.73
2019-03-30T06:51:33.604Z,9.76
2019-03-30T06:52:04.828Z,9.83
2019-03-30T06:52:36.037Z,9.87
2019-03-30T06:53:07.276Z,9.88
2019-03-30T06:53:38.493Z,9.94
2019-03-30T06:54:09.714Z,9.96
2019-03-30T06:54:40.916Z,9.91
2019-03-30T06:55:12.177Z,9.90
2019-03-30T06:55:43.440Z,9.88
2019-03-30T06:56:14.678Z,9.78